createdAt,value
2018-08-17T00:00:45.397Z,61.9
2018-08-17T00:01:46.781Z,62.0
2018-08-17T00:03:08.253Z,61.5
2018-08-17T00:04:09.645Z,62.0
2018-08-17T00:05:31.136Z,61.9
2018-08-17T00:06:32.517Z,61.6
2018-08-17T00:07:53.989Z,61.9
2018-08-17T00:08:55.373Z,61.9
2018-08-17T00:10:16.845Z,61.8
2018-08-17T00:11:18.237Z,61.9
2018-08-17T00:12:39.733Z,61.9
2018-08-17T00:13:41.118Z,62.0
2018-08-17T00:15:02.599Z,61.5
2018-08-17T00:16:03.982Z,61.5
2018-08-17T00:17:25.454Z,61.9
2018-08-17T00:18:26.838Z,61.6
2018-08-17T00:19:48.478Z,62.1
2018-08-17T00:20:49.864Z,61.5
2018-08-17T00:22:11.334Z,61.6
2018-08-17T00:23:12.718Z,61.4
2018-08-17T00:24:34.190Z,62.0
2018-08-17T00:25:35.582Z,61.5
2018-08-17T00:26:57.222Z,62.0
2018-08-17T00:27:58.614Z,61.8
2018-08-17T00:29:20.086Z,61.7
2018-08-17T00:30:21.478Z,61.9
2018-08-17T00:31:42.950Z,61.9
2018-08-17T00:32:44.334Z,62.0
2018-08-17T00:34:05.830Z,61.8
2018-08-17T00:35:07.214Z,61.8
2018-08-17T00:36:28.687Z,62.0
2018-08-17T00:37:30.070Z,62.0
2018-08-17T00:38:51.544Z,61.7
2018-08-17T00:39:52.926Z,61.8
2018-08-17T00:41:14.414Z,61.8
2018-08-17T00:42:15.799Z,62.0
2018-08-17T00:43:37.271Z,61.6
2018-08-17T00:44:38.655Z,62.0
2018-08-17T00:46:00.134Z,61.5
2018-08-17T00:47:01.518Z,61.6
2018-08-17T00:48:23.016Z,61.6
2018-08-17T00:49:24.402Z,61.7
2018-08-17T00:50:45.871Z,62.0
2018-08-17T00:51:47.255Z,61.9
2018-08-17T00:53:08.735Z,61.6
2018-08-17T00:54:10.119Z,62.0
2018-08-17T00:55:31.623Z,61.7
2018-08-17T00:56:32.991Z,62.0
2018-08-17T00:57:54.463Z,62.0
2018-08-17T00:58:55.847Z,61.8
2018-08-17T01:00:17.327Z,62.1
2018-08-17T01:01:18.712Z,61.7
2018-08-17T01:02:40.209Z,62.0
2018-08-17T01:03:41.594Z,62.0
2018-08-17T01:05:03.070Z,62.0
2018-08-17T01:06:04.450Z,62.1
2018-08-17T01:07:25.927Z,61.8
2018-08-17T01:08:27.311Z,61.8
2018-08-17T01:09:48.893Z,61.8
2018-08-17T01:10:50.273Z,61.3
2018-08-17T01:12:11.743Z,61.4
2018-08-17T01:13:13.127Z,61.7
2018-08-17T01:14:34.607Z,61.7
2018-08-17T01:15:35.991Z,61.6
2018-08-17T01:16:57.479Z,61.8
2018-08-17T01:17:58.864Z,62.0
2018-08-17T01:19:20.335Z,61.7
2018-08-17T01:20:21.719Z,61.6
2018-08-17T01:21:43.200Z,61.6
2018-08-17T01:22:44.583Z,61.6
2018-08-17T01:24:06.080Z,62.3
2018-08-17T01:25:07.463Z,61.8
2018-08-17T01:26:28.936Z,62.3
2018-08-17T01:27:30.323Z,62.5
2018-08-17T01:28:51.799Z,62.2
2018-08-17T01:29:53.183Z,62.3
2018-08-17T01:31:14.671Z,62.1
2018-08-17T01:32:16.059Z,62.5
2018-08-17T01:33:37.527Z,62.1
2018-08-17T01:34:38.911Z,62.4
2018-08-17T01:36:00.384Z,61.8
2018-08-17T01:37:01.769Z,61.8
2018-08-17T01:38:23.263Z,62.1
2018-08-17T01:39:24.648Z,62.4
2018-08-17T01:40:46.120Z,62.5
2018-08-17T01:41:47.513Z,62.1
2018-08-17T01:43:08.984Z,62.5
2018-08-17T01:44:10.367Z,62.0
2018-08-17T01:45:31.856Z,62.4
2018-08-17T01:46:33.240Z,62.2
2018-08-17T01:47:54.712Z,62.2
2018-08-17T01:48:56.096Z,62.2
2018-08-17T01:50:17.568Z,62.1
2018-08-17T01:51:18.952Z,62.3
2018-08-17T01:52:40.448Z,62.1
2018-08-17T01:53:41.832Z,62.5
2018-08-17T01:55:03.304Z,62.4
2018-08-17T01:56:04.691Z,62.4
2018-08-17T01:57:26.160Z,62.5
2018-08-17T01:58:27.544Z,62.3
2018-08-17T01:59:49.032Z,62.3
2018-08-17T02:00:50.417Z,62.4
2018-08-17T02:02:11.888Z,62.2
2018-08-17T02:03:13.272Z,62.2
2018-08-17T02:04:34.744Z,62.4
2018-08-17T02:05:36.128Z,62.2
2018-08-17T02:06:57.625Z,62.5
2018-08-17T02:07:59.008Z,62.5
2018-08-17T02:09:20.480Z,62.7
2018-08-17T02:10:21.874Z,63.0
2018-08-17T02:11:43.352Z,63.0
2018-08-17T02:12:44.736Z,62.9
2018-08-17T02:14:06.232Z,63.0
2018-08-17T02:15:07.622Z,63.0
2018-08-17T02:16:29.088Z,63.0
2018-08-17T02:17:30.480Z,62.8
2018-08-17T02:18:51.953Z,62.8
2018-08-17T02:19:53.344Z,62.9
2018-08-17T02:21:14.987Z,63.2
2018-08-17T02:22:16.368Z,63.0
2018-08-17T02:23:37.841Z,63.1
2018-08-17T02:24:39.224Z,63.0
2018-08-17T02:26:00.696Z,63.0
2018-08-17T02:27:02.081Z,63.0
2018-08-17T02:28:23.576Z,62.7
2018-08-17T02:29:24.961Z,62.9
2018-08-17T02:30:46.435Z,62.9
2018-08-17T02:31:47.816Z,62.8
2018-08-17T02:33:09.297Z,63.0
2018-08-17T02:34:10.689Z,63.0
2018-08-17T02:35:32.176Z,63.0
2018-08-17T02:36:33.561Z,63.0
2018-08-17T02:37:55.034Z,62.7
2018-08-17T02:38:56.417Z,63.4
2018-08-17T02:40:17.889Z,63.1
2018-08-17T02:41:19.273Z,63.0
2018-08-17T02:42:40.761Z,63.4
2018-08-17T02:43:42.145Z,63.0
2018-08-17T02:45:03.625Z,63.4
2018-08-17T02:46:05.011Z,63.4
2018-08-17T02:47:26.497Z,63.1
2018-08-17T02:48:27.883Z,62.9
2018-08-17T02:49:49.378Z,63.0
2018-08-17T02:50:50.761Z,63.4
2018-08-17T02:52:12.234Z,63.5
2018-08-17T02:53:13.618Z,63.0
2018-08-17T02:54:35.089Z,63.0
2018-08-17T02:55:36.481Z,63.0
2018-08-17T02:56:57.970Z,62.9
2018-08-17T02:57:59.353Z,63.3
2018-08-17T02:59:20.890Z,63.3
2018-08-17T03:00:22.218Z,63.4
2018-08-17T03:01:43.689Z,63.5
2018-08-17T03:02:45.081Z,63.4
2018-08-17T03:04:06.578Z,63.4
2018-08-17T03:05:07.962Z,63.3
2018-08-17T03:06:29.441Z,63.2
2018-08-17T03:07:30.825Z,63.1
2018-08-17T03:08:52.297Z,63.2
2018-08-17T03:09:53.690Z,63.3
2018-08-17T03:11:15.186Z,63.2
2018-08-17T03:12:16.570Z,63.1
2018-08-17T03:13:38.042Z,63.3
2018-08-17T03:14:39.426Z,63.0
2018-08-17T03:16:00.899Z,63.3
2018-08-17T03:17:02.282Z,63.2
2018-08-17T03:18:23.770Z,63.1
2018-08-17T03:19:25.157Z,63.3
2018-08-17T03:20:46.626Z,63.5
2018-08-17T03:21:48.010Z,63.4
2018-08-17T03:23:09.482Z,63.0
2018-08-17T03:24:10.866Z,63.1
2018-08-17T03:25:32.507Z,63.2
2018-08-17T03:26:33.895Z,63.3
2018-08-17T03:27:55.370Z,63.4
2018-08-17T03:28:56.755Z,63.3
2018-08-17T03:30:18.227Z,63.1
2018-08-17T03:31:19.618Z,63.1
2018-08-17T03:32:41.114Z,63.1
2018-08-17T03:33:42.499Z,63.3
2018-08-17T03:35:03.971Z,63.4
2018-08-17T03:36:05.357Z,63.7
2018-08-17T03:37:26.829Z,63.4
2018-08-17T03:38:28.211Z,63.4
2018-08-17T03:39:49.699Z,63.2
2018-08-17T03:40:51.087Z,63.1
2018-08-17T03:42:12.555Z,63.5
2018-08-17T03:43:13.947Z,63.4
2018-08-17T03:44:35.418Z,63.2
2018-08-17T03:45:36.803Z,63.3
2018-08-17T03:46:58.298Z,63.7
2018-08-17T03:47:59.682Z,63.7
2018-08-17T03:49:21.155Z,63.6
2018-08-17T03:50:22.552Z,63.7
2018-08-17T03:51:44.019Z,63.7
2018-08-17T03:52:45.403Z,63.9
2018-08-17T03:54:06.891Z,63.7
2018-08-17T03:55:08.275Z,63.5
2018-08-17T03:56:29.747Z,63.4
2018-08-17T03:57:31.132Z,63.3
2018-08-17T03:58:52.603Z,63.4
2018-08-17T03:59:53.987Z,63.4
2018-08-17T04:01:15.491Z,63.3
2018-08-17T04:02:16.876Z,63.6
2018-08-17T04:03:38.368Z,63.5
2018-08-17T04:04:39.740Z,63.5
2018-08-17T04:06:01.211Z,63.4
2018-08-17T04:07:02.595Z,63.6
2018-08-17T04:08:24.084Z,63.7
2018-08-17T04:09:25.467Z,63.7
2018-08-17T04:10:46.940Z,63.7
2018-08-17T04:11:48.323Z,63.6
2018-08-17T04:13:09.796Z,63.6
2018-08-17T04:14:11.180Z,64.0
2018-08-17T04:15:32.742Z,63.9
2018-08-17T04:16:34.059Z,63.9
2018-08-17T04:17:55.532Z,64.0
2018-08-17T04:18:56.916Z,63.8
2018-08-17T04:20:18.388Z,64.2
2018-08-17T04:21:19.780Z,63.8
2018-08-17T04:22:41.268Z,64.0
2018-08-17T04:23:42.684Z,63.8
2018-08-17T04:25:04.124Z,63.9
2018-08-17T04:26:05.508Z,63.9
2018-08-17T04:27:26.988Z,63.9
2018-08-17T04:28:28.372Z,63.6
2018-08-17T04:29:49.860Z,63.8
2018-08-17T04:30:51.245Z,63.9
2018-08-17T04:32:12.721Z,63.7
2018-08-17T04:33:14.109Z,64.0
2018-08-17T04:34:35.581Z,64.0
2018-08-17T04:35:36.965Z,63.9
2018-08-17T04:36:58.467Z,64.0
2018-08-17T04:37:59.844Z,63.9
2018-08-17T04:39:21.316Z,63.7
2018-08-17T04:40:22.711Z,64.1
2018-08-17T04:41:44.183Z,64.0
2018-08-17T04:42:45.572Z,63.9
2018-08-17T04:44:07.061Z,63.9
2018-08-17T04:45:08.445Z,64.1
2018-08-17T04:46:29.917Z,64.2
2018-08-17T04:47:31.312Z,64.0
2018-08-17T04:48:52.780Z,63.8
2018-08-17T04:49:54.173Z,64.2
2018-08-17T04:51:15.669Z,64.2
2018-08-17T04:52:17.052Z,64.0
2018-08-17T04:53:38.529Z,63.8
2018-08-17T04:54:39.917Z,63.7
2018-08-17T04:56:01.390Z,63.8
2018-08-17T04:57:02.772Z,63.8
2018-08-17T04:58:24.261Z,63.8
2018-08-17T04:59:25.654Z,63.8
2018-08-17T05:00:47.125Z,63.9
2018-08-17T05:01:48.509Z,63.8
2018-08-17T05:03:09.981Z,63.5
2018-08-17T05:04:11.373Z,64.0
2018-08-17T05:05:32.883Z,64.0
2018-08-17T05:06:34.253Z,64.0
2018-08-17T05:07:55.725Z,63.9
2018-08-17T05:08:57.121Z,63.9
2018-08-17T05:10:18.589Z,64.0
2018-08-17T05:11:19.983Z,63.9
2018-08-17T05:12:41.477Z,63.9
2018-08-17T05:13:42.861Z,63.8
2018-08-17T05:15:04.334Z,64.2
2018-08-17T05:16:05.725Z,64.2
2018-08-17T05:17:27.197Z,64.0
2018-08-17T05:18:28.589Z,64.0
2018-08-17T05:19:50.085Z,64.2
2018-08-17T05:20:51.469Z,63.8
2018-08-17T05:22:12.941Z,64.2
2018-08-17T05:23:14.338Z,63.8
2018-08-17T05:24:35.808Z,64.0
2018-08-17T05:25:37.198Z,63.8
2018-08-17T05:26:58.694Z,63.8
2018-08-17T05:28:00.077Z,64.2
2018-08-17T05:29:21.550Z,63.9
2018-08-17T05:30:22.942Z,63.8
2018-08-17T05:31:44.415Z,63.9
2018-08-17T05:32:45.806Z,63.6
2018-08-17T05:34:07.294Z,63.7
2018-08-17T05:35:08.678Z,63.7
2018-08-17T05:36:30.153Z,63.6
2018-08-17T05:37:31.542Z,63.7
2018-08-17T05:38:53.014Z,63.7
2018-08-17T05:39:54.406Z,63.6
2018-08-17T05:41:15.906Z,63.7
2018-08-17T05:42:17.294Z,63.7
2018-08-17T05:43:38.774Z,63.5
2018-08-17T05:44:40.167Z,63.8
2018-08-17T05:46:01.638Z,63.9
2018-08-17T05:47:03.031Z,63.8
2018-08-17T05:48:24.527Z,63.8
2018-08-17T05:49:25.921Z,63.8
2018-08-17T05:50:47.398Z,63.8
2018-08-17T05:51:48.790Z,63.7
2018-08-17T05:53:10.271Z,63.7
2018-08-17T05:54:11.664Z,63.6
2018-08-17T05:55:33.159Z,63.7
2018-08-17T05:56:34.598Z,63.9
2018-08-17T05:57:56.023Z,63.5
2018-08-17T05:58:57.407Z,63.8
2018-08-17T06:00:18.887Z,63.9
2018-08-17T06:01:20.279Z,63.7
2018-08-17T06:02:41.808Z,64.2
2018-08-17T06:03:43.163Z,64.0
2018-08-17T06:05:04.631Z,64.0
2018-08-17T06:06:06.023Z,64.3
2018-08-17T06:07:27.495Z,63.9
2018-08-17T06:08:28.888Z,63.9
2018-08-17T06:09:50.391Z,64.4
2018-08-17T06:10:51.851Z,64.2
2018-08-17T06:12:13.223Z,64.3
2018-08-17T06:13:14.610Z,64.2
2018-08-17T06:14:36.095Z,64.0
2018-08-17T06:15:37.487Z,64.2
2018-08-17T06:16:58.969Z,64.2
2018-08-17T06:18:00.351Z,64.3
2018-08-17T06:19:21.889Z,64.6
2018-08-17T06:20:23.175Z,64.8
2018-08-17T06:21:44.656Z,64.4
2018-08-17T06:22:46.040Z,64.7
2018-08-17T06:24:07.527Z,64.6
2018-08-17T06:25:08.912Z,64.7
2018-08-17T06:26:30.383Z,64.9
2018-08-17T06:27:31.776Z,65.0
2018-08-17T06:28:53.255Z,65.0
2018-08-17T06:29:54.648Z,64.8
2018-08-17T06:31:16.143Z,64.9
2018-08-17T06:32:17.528Z,64.8
2018-08-17T06:33:39.007Z,65.0
2018-08-17T06:34:40.391Z,64.8
2018-08-17T06:36:01.918Z,65.1
2018-08-17T06:37:03.294Z,65.1
2018-08-17T06:38:24.745Z,64.8
2018-08-17T06:39:26.128Z,64.9
2018-08-17T06:40:47.608Z,64.8
2018-08-17T06:41:49.000Z,64.7
2018-08-17T06:43:10.479Z,65.0
2018-08-17T06:44:11.864Z,65.2
2018-08-17T06:45:33.360Z,65.0
2018-08-17T06:46:34.744Z,65.1
2018-08-17T06:47:56.215Z,65.0
2018-08-17T06:48:57.608Z,65.2
2018-08-17T06:50:19.088Z,65.5
2018-08-17T06:51:20.488Z,65.2
2018-08-17T06:52:41.976Z,65.3
2018-08-17T06:53:43.368Z,65.5
2018-08-17T06:55:04.856Z,65.5
2018-08-17T06:56:06.240Z,65.5
2018-08-17T06:57:27.720Z,65.1
2018-08-17T06:58:29.104Z,65.1
2018-08-17T06:59:50.600Z,64.9
2018-08-17T07:00:51.984Z,64.9
2018-08-17T07:02:13.456Z,64.8
2018-08-17T07:03:14.849Z,64.9
2018-08-17T07:04:36.352Z,65.1
2018-08-17T07:05:37.744Z,65.1
2018-08-17T07:06:59.248Z,64.9
2018-08-17T07:08:00.640Z,65.1
2018-08-17T07:09:22.250Z,65.1
2018-08-17T07:10:23.472Z,65.4
2018-08-17T07:11:44.944Z,64.8
2018-08-17T07:12:46.336Z,65.0
2018-08-17T07:14:07.824Z,64.9
2018-08-17T07:15:09.213Z,65.1
2018-08-17T07:16:30.740Z,64.6
2018-08-17T07:17:32.083Z,64.8
2018-08-17T07:18:53.560Z,64.6
2018-08-17T07:19:54.953Z,64.6
2018-08-17T07:21:16.449Z,64.4
2018-08-17T07:22:17.832Z,64.2
2018-08-17T07:23:39.304Z,63.8
2018-08-17T07:24:40.696Z,64.1
2018-08-17T07:26:02.176Z,64.2
2018-08-17T07:27:03.568Z,64.2
2018-08-17T07:28:25.065Z,64.1
2018-08-17T07:29:26.448Z,64.2
2018-08-17T07:30:47.928Z,64.7
2018-08-17T07:31:49.321Z,64.2
2018-08-17T07:33:10.792Z,64.2
2018-08-17T07:34:12.185Z,64.2
2018-08-17T07:35:33.692Z,64.2
2018-08-17T07:36:35.064Z,64.2
2018-08-17T07:37:56.545Z,64.3
2018-08-17T07:38:57.937Z,64.2
2018-08-17T07:40:19.411Z,64.2
2018-08-17T07:41:20.801Z,64.2
2018-08-17T07:42:42.297Z,64.4
2018-08-17T07:43:43.681Z,64.4
2018-08-17T07:45:05.161Z,64.2
2018-08-17T07:46:06.554Z,64.0
2018-08-17T07:47:28.026Z,64.1
2018-08-17T07:48:29.417Z,64.0
2018-08-17T07:49:50.913Z,64.0
2018-08-17T07:50:52.297Z,64.0
2018-08-17T07:52:13.777Z,63.7
2018-08-17T07:53:15.169Z,63.8
2018-08-17T07:54:36.642Z,63.8
2018-08-17T07:55:38.033Z,63.9
2018-08-17T07:56:59.539Z,63.5
2018-08-17T07:58:00.930Z,63.7
2018-08-17T07:59:22.419Z,63.5
2018-08-17T08:00:23.802Z,63.3
2018-08-17T08:01:45.298Z,63.3
2018-08-17T08:02:46.690Z,63.2
2018-08-17T08:04:08.194Z,63.5
2018-08-17T08:05:09.585Z,63.5
2018-08-17T08:06:31.075Z,63.5
2018-08-17T08:07:32.466Z,63.0
2018-08-17T08:08:53.946Z,63.5
2018-08-17T08:09:55.348Z,63.4
2018-08-17T08:11:16.843Z,63.4
2018-08-17T08:12:18.234Z,63.4
2018-08-17T08:13:39.771Z,63.2
2018-08-17T08:14:41.141Z,63.2
2018-08-17T08:16:02.595Z,63.3
2018-08-17T08:17:03.994Z,63.2
2018-08-17T08:18:25.509Z,63.2
2018-08-17T08:19:26.876Z,63.0
2018-08-17T08:20:48.357Z,63.3
2018-08-17T08:21:49.751Z,63.0
2018-08-17T08:23:11.226Z,63.6
2018-08-17T08:24:12.619Z,63.0
2018-08-17T08:25:34.251Z,63.7
2018-08-17T08:26:35.643Z,63.1
2018-08-17T08:27:57.131Z,63.1
2018-08-17T08:28:58.515Z,63.1
2018-08-17T08:30:19.995Z,63.3
2018-08-17T08:31:21.388Z,63.4
2018-08-17T08:32:42.875Z,63.6
2018-08-17T08:33:44.263Z,63.5
2018-08-17T08:35:05.739Z,63.6
2018-08-17T08:36:07.131Z,63.5
2018-08-17T08:37:28.611Z,64.1
2018-08-17T08:38:30.006Z,63.8
2018-08-17T08:39:51.509Z,63.7
2018-08-17T08:40:52.884Z,63.7
2018-08-17T08:42:14.375Z,63.7
2018-08-17T08:43:15.767Z,63.7
2018-08-17T08:44:37.244Z,63.7
2018-08-17T08:45:38.724Z,63.7
2018-08-17T08:47:00.135Z,63.6
2018-08-17T08:48:01.528Z,63.7
2018-08-17T08:49:23.003Z,63.8
2018-08-17T08:50:24.396Z,63.7
2018-08-17T08:51:45.876Z,63.9
2018-08-17T08:52:47.275Z,63.9
2018-08-17T08:54:08.764Z,63.8
2018-08-17T08:55:10.147Z,63.9
2018-08-17T08:56:31.635Z,63.7
2018-08-17T08:57:33.020Z,64.0
2018-08-17T08:58:54.500Z,64.1
2018-08-17T08:59:55.892Z,64.0
2018-08-17T09:01:17.387Z,64.2
2018-08-17T09:02:18.782Z,64.3
2018-08-17T09:03:40.243Z,64.3
2018-08-17T09:04:41.644Z,64.2
2018-08-17T09:06:03.123Z,63.8
2018-08-17T09:07:04.515Z,63.9
2018-08-17T09:08:26.020Z,63.8
2018-08-17T09:09:27.412Z,64.0
2018-08-17T09:10:48.892Z,63.9
2018-08-17T09:11:50.284Z,64.0
2018-08-17T09:13:11.766Z,63.9
2018-08-17T09:14:13.155Z,64.2
2018-08-17T09:15:34.652Z,63.9
2018-08-17T09:16:36.036Z,63.6
2018-08-17T09:17:57.515Z,63.7
2018-08-17T09:18:58.908Z,63.8
2018-08-17T09:20:20.406Z,63.8
2018-08-17T09:21:21.783Z,64.0
2018-08-17T09:22:43.268Z,64.0
2018-08-17T09:23:44.652Z,64.0
2018-08-17T09:25:06.131Z,64.0
2018-08-17T09:26:07.524Z,64.0
2018-08-17T09:27:29.004Z,64.0
2018-08-17T09:28:30.396Z,64.0
2018-08-17T09:29:51.980Z,64.0
2018-08-17T09:30:53.372Z,63.5
2018-08-17T09:32:14.852Z,63.7
2018-08-17T09:33:16.245Z,63.1
2018-08-17T09:34:37.724Z,63.6
2018-08-17T09:35:39.116Z,63.7
2018-08-17T09:37:00.612Z,63.6
2018-08-17T09:38:02.000Z,63.6
2018-08-17T09:39:23.476Z,63.7
2018-08-17T09:40:24.868Z,63.5
2018-08-17T09:41:46.413Z,63.5
2018-08-17T09:42:47.741Z,63.6
2018-08-17T09:44:09.236Z,63.0
2018-08-17T09:45:10.620Z,63.3
2018-08-17T09:46:32.109Z,63.2
2018-08-17T09:47:33.501Z,63.2
2018-08-17T09:48:54.973Z,63.2
2018-08-17T09:49:56.365Z,63.4
2018-08-17T09:51:17.925Z,63.5
2018-08-17T09:52:19.216Z,63.3
2018-08-17T09:53:40.693Z,63.8
2018-08-17T09:54:42.085Z,63.5
2018-08-17T09:56:03.565Z,63.5
2018-08-17T09:57:04.957Z,63.7
2018-08-17T09:58:26.445Z,63.5
2018-08-17T09:59:27.838Z,63.0
2018-08-17T10:00:49.325Z,62.8
2018-08-17T10:01:50.717Z,62.9
2018-08-17T10:03:12.197Z,62.7
2018-08-17T10:04:13.640Z,62.3
2018-08-17T10:05:35.086Z,62.5
2018-08-17T10:06:36.477Z,62.1
2018-08-17T10:07:57.965Z,62.2
2018-08-17T10:08:59.358Z,62.4
2018-08-17T10:10:20.837Z,61.7
2018-08-17T10:11:22.229Z,61.6
2018-08-17T10:12:43.726Z,62.0
2018-08-17T10:13:45.118Z,61.9
2018-08-17T10:15:06.598Z,61.5
2018-08-17T10:16:07.990Z,61.5
2018-08-17T10:17:29.469Z,61.8
2018-08-17T10:18:30.862Z,61.4
2018-08-17T10:19:52.359Z,61.8
2018-08-17T10:20:53.851Z,61.4
2018-08-17T10:22:15.241Z,61.8
2018-08-17T10:23:16.630Z,61.6
2018-08-17T10:24:38.112Z,61.0
2018-08-17T10:25:39.502Z,62.1
2018-08-17T10:27:00.998Z,61.9
2018-08-17T10:28:02.390Z,61.4
2018-08-17T10:29:23.870Z,61.9
2018-08-17T10:30:25.262Z,61.8
2018-08-17T10:31:46.742Z,61.9
2018-08-17T10:32:48.134Z,61.7
2018-08-17T10:34:09.658Z,61.8
2018-08-17T10:35:10.982Z,62.3
2018-08-17T10:36:32.462Z,62.2
2018-08-17T10:37:33.856Z,61.7
2018-08-17T10:38:55.334Z,61.7
2018-08-17T10:39:56.726Z,61.7
2018-08-17T10:41:18.214Z,62.0
2018-08-17T10:42:19.609Z,61.8
2018-08-17T10:43:41.086Z,61.7
2018-08-17T10:44:42.479Z,62.0
2018-08-17T10:46:03.966Z,62.0
2018-08-17T10:47:05.358Z,61.4
2018-08-17T10:48:26.862Z,61.7
2018-08-17T10:49:28.255Z,61.6
2018-08-17T10:50:49.735Z,61.9
2018-08-17T10:51:51.127Z,62.0
2018-08-17T10:53:12.607Z,61.9
2018-08-17T10:54:13.999Z,62.0
2018-08-17T10:55:35.517Z,62.3
2018-08-17T10:56:36.839Z,62.4
2018-08-17T10:57:58.319Z,62.3
2018-08-17T10:58:59.711Z,62.3
2018-08-17T11:00:21.191Z,62.5
2018-08-17T11:01:22.583Z,62.2
2018-08-17T11:02:44.078Z,62.1
2018-08-17T11:03:45.462Z,62.4
2018-08-17T11:05:06.935Z,62.2
2018-08-17T11:06:08.327Z,62.1
2018-08-17T11:07:29.807Z,62.1
2018-08-17T11:08:31.201Z,62.4
2018-08-17T11:09:52.695Z,62.4
2018-08-17T11:10:54.135Z,62.4
2018-08-17T11:12:15.559Z,62.3
2018-08-17T11:13:16.944Z,62.4
2018-08-17T11:14:38.415Z,62.4
2018-08-17T11:15:39.807Z,62.3
2018-08-17T11:17:01.302Z,62.2
2018-08-17T11:18:02.650Z,62.5
2018-08-17T11:19:24.119Z,62.3
2018-08-17T11:20:25.511Z,62.1
2018-08-17T11:21:46.993Z,62.3
2018-08-17T11:22:48.434Z,62.2
2018-08-17T11:24:09.888Z,62.1
2018-08-17T11:25:11.282Z,62.3
2018-08-17T11:26:32.759Z,62.4
2018-08-17T11:27:34.151Z,62.5
2018-08-17T11:28:55.632Z,62.4
2018-08-17T11:29:57.027Z,62.2
2018-08-17T11:31:18.528Z,61.9
2018-08-17T11:32:19.920Z,61.7
2018-08-17T11:33:41.408Z,61.8
2018-08-17T11:34:42.800Z,62.0
2018-08-17T11:36:04.288Z,61.8
2018-08-17T11:37:05.683Z,62.0
2018-08-17T11:38:27.176Z,61.7
2018-08-17T11:39:28.568Z,61.7
2018-08-17T11:40:50.047Z,62.1
2018-08-17T11:41:51.440Z,61.4
2018-08-17T11:43:12.929Z,61.3
2018-08-17T11:44:14.320Z,61.7
2018-08-17T11:45:35.824Z,61.6
2018-08-17T11:46:37.224Z,61.8
2018-08-17T11:47:58.704Z,61.9
2018-08-17T11:49:00.098Z,61.5
2018-08-17T11:50:21.576Z,61.8
2018-08-17T11:51:22.976Z,61.8
2018-08-17T11:52:44.464Z,61.5
2018-08-17T11:53:45.924Z,61.7
2018-08-17T11:55:07.394Z,61.4
2018-08-17T11:56:08.792Z,62.0
2018-08-17T11:57:30.318Z,61.6
2018-08-17T11:58:31.664Z,61.5
2018-08-17T11:59:53.160Z,61.6
2018-08-17T12:00:54.556Z,61.6
2018-08-17T12:02:16.041Z,62.1
2018-08-17T12:03:17.433Z,61.7
2018-08-17T12:04:38.912Z,61.7
2018-08-17T12:05:40.304Z,61.5
2018-08-17T12:07:01.801Z,61.7
2018-08-17T12:08:03.255Z,61.6
2018-08-17T12:09:24.689Z,60.7
2018-08-17T12:10:26.081Z,61.7
2018-08-17T12:11:47.561Z,61.2
2018-08-17T12:12:48.960Z,61.4
2018-08-17T12:14:10.457Z,61.7
2018-08-17T12:15:11.849Z,61.7
2018-08-17T12:16:33.337Z,61.6
2018-08-17T12:17:34.728Z,61.8
2018-08-17T12:18:56.218Z,61.7
2018-08-17T12:19:57.617Z,61.5
2018-08-17T12:21:19.114Z,61.8
2018-08-17T12:22:20.509Z,61.3
2018-08-17T12:23:41.993Z,61.3
2018-08-17T12:24:43.533Z,61.5
2018-08-17T12:26:04.865Z,60.7
2018-08-17T12:27:06.267Z,60.9
2018-08-17T12:28:27.769Z,61.0
2018-08-17T12:29:29.161Z,60.8
2018-08-17T12:30:50.649Z,60.9
2018-08-17T12:31:52.041Z,60.7
2018-08-17T12:33:13.523Z,60.8
2018-08-17T12:34:14.921Z,60.7
2018-08-17T12:35:36.417Z,60.9
2018-08-17T12:36:37.809Z,61.0
2018-08-17T12:37:59.297Z,60.8
2018-08-17T12:39:00.689Z,60.7
2018-08-17T12:40:22.170Z,60.7
2018-08-17T12:41:23.561Z,60.7
2018-08-17T12:42:45.058Z,60.7
2018-08-17T12:43:46.450Z,60.7
2018-08-17T12:45:07.937Z,60.7
2018-08-17T12:46:09.329Z,60.7
2018-08-17T12:47:30.810Z,60.7
2018-08-17T12:48:32.203Z,60.6
2018-08-17T12:49:53.698Z,60.9
2018-08-17T12:50:55.092Z,60.9
2018-08-17T12:52:16.640Z,60.7
2018-08-17T12:53:17.962Z,60.8
2018-08-17T12:54:39.450Z,61.3
2018-08-17T12:55:40.842Z,61.4
2018-08-17T12:57:02.338Z,61.3
2018-08-17T12:58:03.755Z,61.2
2018-08-17T12:59:25.223Z,60.8
2018-08-17T13:00:26.610Z,60.7
2018-08-17T13:01:48.234Z,60.5
2018-08-17T13:02:49.626Z,60.6
2018-08-17T13:04:11.122Z,60.7
2018-08-17T13:05:12.522Z,60.6
2018-08-17T13:06:34.010Z,60.4
2018-08-17T13:07:35.402Z,60.7
2018-08-17T13:08:56.882Z,60.5
2018-08-17T13:09:58.274Z,60.6
2018-08-17T13:11:19.931Z,60.7
2018-08-17T13:12:21.314Z,60.6
2018-08-17T13:13:42.794Z,60.9
2018-08-17T13:14:44.195Z,60.4
2018-08-17T13:16:05.674Z,60.6
2018-08-17T13:17:07.100Z,60.6
2018-08-17T13:18:28.570Z,60.4
2018-08-17T13:19:29.962Z,60.5
2018-08-17T13:20:51.442Z,60.6
2018-08-17T13:21:52.835Z,60.9
2018-08-17T13:23:14.315Z,60.5
2018-08-17T13:24:15.706Z,60.7
2018-08-17T13:25:37.203Z,60.6
2018-08-17T13:26:38.596Z,60.5
2018-08-17T13:28:00.076Z,60.7
2018-08-17T13:29:01.467Z,60.7
2018-08-17T13:30:22.959Z,60.8
2018-08-17T13:31:24.346Z,60.8
2018-08-17T13:32:46.003Z,61.0
2018-08-17T13:33:47.387Z,61.0
2018-08-17T13:35:08.867Z,60.7
2018-08-17T13:36:10.304Z,60.7
2018-08-17T13:37:31.699Z,60.8
2018-08-17T13:38:33.092Z,60.8
2018-08-17T13:39:54.661Z,61.5
2018-08-17T13:40:55.939Z,61.1
2018-08-17T13:42:17.474Z,61.5
2018-08-17T13:43:18.773Z,61.5
2018-08-17T13:44:40.251Z,61.5
2018-08-17T13:45:41.643Z,61.5
2018-08-17T13:47:03.139Z,61.1
2018-08-17T13:48:04.531Z,60.9
2018-08-17T13:49:26.011Z,60.8
2018-08-17T13:50:27.403Z,60.7
2018-08-17T13:51:48.883Z,60.7
2018-08-17T13:52:50.275Z,61.1
2018-08-17T13:54:11.764Z,60.8
2018-08-17T13:55:13.152Z,61.1
2018-08-17T13:56:34.627Z,60.9
2018-08-17T13:57:36.023Z,60.7
2018-08-17T13:58:57.500Z,60.7
2018-08-17T13:59:58.891Z,61.1
2018-08-17T14:01:20.389Z,60.6
2018-08-17T14:02:21.780Z,60.9
2018-08-17T14:03:43.259Z,60.8
2018-08-17T14:04:44.652Z,60.5
2018-08-17T14:06:06.132Z,60.6
2018-08-17T14:07:07.528Z,60.5
2018-08-17T14:08:29.260Z,60.6
2018-08-17T14:09:30.665Z,60.6
2018-08-17T14:10:52.132Z,60.7
2018-08-17T14:11:53.524Z,61.1
2018-08-17T14:13:15.004Z,61.0
2018-08-17T14:14:16.396Z,60.8
2018-08-17T14:15:37.939Z,61.0
2018-08-17T14:16:39.243Z,60.9
2018-08-17T14:18:00.724Z,60.8
2018-08-17T14:19:02.116Z,60.8
2018-08-17T14:20:23.596Z,60.6
2018-08-17T14:21:24.988Z,60.7
2018-08-17T14:22:46.484Z,60.6
2018-08-17T14:23:47.876Z,60.7
2018-08-17T14:25:09.356Z,60.5
2018-08-17T14:26:10.748Z,60.5
2018-08-17T14:27:32.228Z,60.5
2018-08-17T14:28:33.620Z,60.3
2018-08-17T14:29:55.125Z,60.4
2018-08-17T14:30:56.517Z,60.7
2018-08-17T14:32:17.996Z,60.7
2018-08-17T14:33:19.388Z,60.5
2018-08-17T14:34:40.869Z,60.8
2018-08-17T14:35:42.261Z,60.6
2018-08-17T14:37:03.756Z,60.7
2018-08-17T14:38:05.151Z,60.4
2018-08-17T14:39:26.629Z,60.7
2018-08-17T14:40:28.101Z,60.6
2018-08-17T14:41:49.468Z,61.1
2018-08-17T14:42:50.861Z,60.5
2018-08-17T14:44:12.349Z,60.6
2018-08-17T14:45:13.733Z,60.6
2018-08-17T14:46:35.213Z,60.4
2018-08-17T14:47:36.604Z,60.8
2018-08-17T14:48:58.085Z,60.6
2018-08-17T14:49:59.480Z,60.4
2018-08-17T14:51:20.982Z,60.5
2018-08-17T14:52:22.374Z,60.5
2018-08-17T14:53:43.853Z,60.5
2018-08-17T14:54:45.245Z,60.6
2018-08-17T14:56:06.725Z,61.0
2018-08-17T14:57:08.117Z,60.6
2018-08-17T14:58:29.605Z,60.9
2018-08-17T14:59:30.998Z,60.7
2018-08-17T15:00:52.478Z,61.0
2018-08-17T15:01:53.869Z,60.7
2018-08-17T15:03:15.349Z,61.1
2018-08-17T15:04:16.744Z,61.0
2018-08-17T15:05:38.245Z,60.6
2018-08-17T15:06:39.637Z,60.6
2018-08-17T15:08:01.117Z,60.8
2018-08-17T15:09:02.538Z,60.8
2018-08-17T15:10:23.989Z,61.0
2018-08-17T15:11:25.387Z,61.0
2018-08-17T15:12:46.938Z,60.7
2018-08-17T15:13:48.229Z,60.6
2018-08-17T15:15:09.709Z,61.1
2018-08-17T15:16:11.101Z,61.0
2018-08-17T15:17:32.583Z,60.5
2018-08-17T15:18:34.011Z,60.6
2018-08-17T15:19:55.469Z,60.5
2018-08-17T15:20:56.863Z,60.8
2018-08-17T15:22:18.341Z,61.1
2018-08-17T15:23:19.734Z,60.8
2018-08-17T15:24:41.221Z,60.7
2018-08-17T15:25:42.613Z,60.7
2018-08-17T15:27:04.120Z,60.7
2018-08-17T15:28:05.509Z,60.9
2018-08-17T15:29:26.989Z,60.8
2018-08-17T15:30:28.381Z,61.1
2018-08-17T15:31:49.862Z,61.1
2018-08-17T15:32:51.253Z,60.8
2018-08-17T15:34:12.757Z,60.8
2018-08-17T15:35:14.152Z,60.8
2018-08-17T15:36:35.632Z,60.8
2018-08-17T15:37:37.022Z,60.8
2018-08-17T15:38:58.501Z,60.8
2018-08-17T15:39:59.893Z,60.7
2018-08-17T15:41:21.426Z,60.7
2018-08-17T15:42:22.742Z,60.7
2018-08-17T15:43:44.230Z,60.8
2018-08-17T15:44:45.622Z,60.9
2018-08-17T15:46:07.125Z,61.1
2018-08-17T15:47:08.494Z,60.7
2018-08-17T15:48:29.990Z,60.8
2018-08-17T15:49:31.382Z,60.8
2018-08-17T15:50:52.863Z,60.8